Terminal Aerodrome Forecast
Issued by NWS Huntsville, AL

Home | Current Version | Previous Version | Text Only | Print | Product List | Glossary On
Versions: 1 2 3 4 5 6 7 8 9 10 11 12
000
FTUS44 KHUN 180520
TAFMSL
TAF
KMSL 180520Z 1806/1906 12006KT P6SM BKN035 OVC060
     FM181200 08006KT P6SM VCSH OVC040
      TEMPO 1812/1815 BKN025
     FM181500 08006KT P6SM OVC070=

USA.gov is the U.S. government's official web portal to all federal, state and local government web resources and services.